Time;durP1;ratioP1;P1;durP2;ratioP2;P2;SDS_P1;SDS_P2;PMS_P1;PMS_P2;Temp;Humidity;BMP_temperature;BMP_pressure;BME280_temperature;BME280_humidity;BME280_pressure;Samples;Min_cycle;Max_cycle;Signal;HPM_P1;HPM_P2
2023/03/26 00:07:30;;;;;;;4.47;1.33;;;;;;;6.97;60.19;99646.97;19916358;29;20253;-84
2023/03/26 00:17:33;;;;;;;9.90;1.97;;;;;;;6.90;59.94;99658.72;19953992;29;20641;-86
2023/03/26 00:27:39;;;;;;;10.20;1.90;;;;;;;7.05;60.73;99663.00;19950133;29;20208;-86
2023/03/26 00:37:42;;;;;;;10.50;1.70;;;;;;;6.72;61.67;99643.91;19956949;29;20285;-82
2023/03/26 00:47:44;;;;;;;10.83;2.20;;;;;;;7.10;60.24;99634.72;19970784;29;20245;-87
2023/03/26 00:57:47;;;;;;;12.97;2.03;;;;;;;6.97;60.70;99621.72;19954707;29;20227;-84
2023/03/26 01:07:50;;;;;;;10.17;2.37;;;;;;;7.09;59.31;99619.06;19999773;29;20223;-83
2023/03/26 01:17:56;;;;;;;15.10;3.00;;;;;;;6.60;61.41;99606.50;19990483;29;20228;-86
2023/03/26 01:27:59;;;;;;;16.17;2.97;;;;;;;6.73;60.13;99597.88;19963436;29;20200;-85
2023/03/26 01:38:23;;;;;;;15.27;2.80;;;;;;;6.63;61.30;99598.25;20011534;29;20223;-84
2023/03/26 01:48:38;;;;;;;14.17;3.27;;;;;;;6.99;59.14;99585.75;20024524;29;20200;-87
2023/03/26 01:58:52;;;;;;;23.50;3.60;;;;;;;6.92;59.49;99571.44;19964230;29;20220;-87
2023/03/26 02:08:59;;;;;;;16.83;3.00;;;;;;;6.64;59.70;99559.81;19978034;29;20196;-85
2023/03/26 02:19:03;;;;;;;21.70;3.10;;;;;;;7.05;57.76;99551.56;20012254;29;20227;-86
2023/03/26 02:29:06;;;;;;;19.90;3.27;;;;;;;7.26;57.01;99531.94;19986252;29;20204;-86
2023/03/26 02:39:13;;;;;;;20.30;3.67;;;;;;;6.63;58.80;99519.72;19961192;29;20272;-85
2023/03/26 02:49:18;;;;;;;23.13;3.80;;;;;;;7.17;57.49;99514.34;19984132;29;20203;-86
2023/03/26 02:59:21;;;;;;;14.63;2.63;;;;;;;7.04;58.06;99505.00;19982875;29;20224;-84
2023/03/26 03:09:40;;;;;;;16.07;3.10;;;;;;;6.30;60.70;99501.84;19955504;29;20230;-85
2023/03/26 03:20:04;;;;;;;18.30;3.30;;;;;;;7.54;56.56;99489.31;19971808;29;20223;-85
2023/03/26 03:30:09;;;;;;;21.83;3.73;;;;;;;7.36;56.82;99466.13;19944248;29;20201;-85
2023/03/26 03:40:14;;;;;;;19.33;3.17;;;;;;;7.29;56.88;99452.66;19942795;29;20682;-86
2023/03/26 03:50:18;;;;;;;23.50;4.20;;;;;;;7.50;55.98;99440.59;19973650;29;20208;-86
2023/03/26 04:00:47;;;;;;;20.30;4.00;;;;;;;6.91;57.92;99435.09;19996428;29;20231;-85
2023/03/26 04:11:18;;;;;;;15.70;3.07;;;;;;;6.45;59.10;99425.56;20001387;29;20212;-85
2023/03/26 04:21:41;;;;;;;17.83;3.10;;;;;;;6.17;60.06;99418.78;19879746;29;20253;-84
2023/03/26 04:31:45;;;;;;;17.60;2.77;;;;;;;6.68;58.25;99407.34;20002222;29;20682;-85
2023/03/26 04:41:50;;;;;;;18.30;2.70;;;;;;;6.67;58.27;99388.06;20031682;29;20234;-84
2023/03/26 04:51:54;;;;;;;15.80;2.57;;;;;;;6.86;57.83;99382.81;20009990;29;20223;-86
2023/03/26 05:02:20;;;;;;;16.70;2.43;;;;;;;6.76;57.55;99351.53;20026315;29;20239;-84
2023/03/26 05:12:26;;;;;;;14.20;2.67;;;;;;;6.98;57.02;99352.00;19956545;29;20196;-86
2023/03/26 05:22:37;;;;;;;15.20;3.47;;;;;;;6.46;57.84;99343.09;19977894;29;20228;-86
2023/03/26 05:32:55;;;;;;;11.83;2.63;;;;;;;6.92;57.13;99327.31;19948114;29;20605;-87
2023/03/26 05:43:03;;;;;;;11.57;2.13;;;;;;;7.12;56.57;99312.44;19942832;29;20221;-87
2023/03/26 05:53:22;;;;;;;15.83;2.73;;;;;;;7.32;55.86;99297.56;19952909;29;20215;-87
2023/03/26 06:03:56;;;;;;;10.07;1.80;;;;;;;7.54;55.33;99275.84;19952776;29;20219;-87
2023/03/26 06:14:03;;;;;;;10.43;1.50;;;;;;;7.14;57.53;99272.81;19976418;29;20285;-74
2023/03/26 06:24:06;;;;;;;12.43;2.10;;;;;;;7.09;56.43;99254.22;19983352;29;20247;-86
2023/03/26 06:34:18;;;;;;;13.67;2.47;;;;;;;7.26;56.90;99242.78;19975170;29;20231;-84
2023/03/26 06:44:21;;;;;;;13.33;2.57;;;;;;;7.65;55.78;99254.59;19924259;29;20556;-86
2023/03/26 06:54:52;;;;;;;13.87;2.83;;;;;;;7.67;55.90;99252.28;19933212;29;20641;-85
2023/03/26 07:05:20;;;;;;;10.13;2.20;;;;;;;7.41;56.67;99252.53;19936048;29;20707;-85
2023/03/26 07:15:42;;;;;;;11.33;2.47;;;;;;;7.70;56.77;99240.34;19962068;29;20219;-85
2023/03/26 07:25:47;;;;;;;11.03;1.80;;;;;;;7.29;57.95;99233.69;19940444;29;20261;-83
2023/03/26 07:35:56;;;;;;;9.03;1.70;;;;;;;7.02;60.43;99220.28;19959787;29;20235;-84
2023/03/26 07:46:30;;;;;;;10.60;1.93;;;;;;;6.55;62.03;99209.34;19960443;29;20459;-85
2023/03/26 07:56:57;;;;;;;7.13;1.80;;;;;;;6.77;61.75;99190.50;19962447;29;20239;-84
2023/03/26 08:07:49;;;;;;;7.93;2.47;;;;;;;6.91;62.07;99185.41;19951893;29;20223;-85
2023/03/26 08:18:26;;;;;;;10.97;3.00;;;;;;;6.98;62.95;99178.03;19984923;29;20629;-84
2023/03/26 08:28:51;;;;;;;14.23;2.63;;;;;;;6.68;64.50;99174.56;19949344;29;20662;-86
2023/03/26 08:38:54;;;;;;;15.57;3.03;;;;;;;7.10;63.61;99166.03;19915803;29;20265;-85
2023/03/26 08:49:31;;;;;;;17.57;3.23;;;;;;;6.72;65.75;99163.47;19947462;29;20204;-85
2023/03/26 08:59:50;;;;;;;9.37;2.63;;;;;;;6.97;63.81;99161.56;19923478;29;20641;-85
2023/03/26 09:10:21;;;;;;;12.00;2.37;;;;;;;6.41;65.16;99155.50;19947604;29;20196;-84
2023/03/26 09:21:00;;;;;;;9.70;2.30;;;;;;;6.65;65.22;99150.03;19958477;29;20304;-85
2023/03/26 09:31:27;;;;;;;10.27;3.00;;;;;;;6.90;64.41;99155.69;19966361;29;20244;-86
2023/03/26 09:41:37;;;;;;;11.27;2.70;;;;;;;7.59;61.32;99146.44;19959095;29;20292;-86
2023/03/26 09:52:15;;;;;;;11.60;2.70;;;;;;;7.61;62.33;99141.31;19952680;29;20598;-87
2023/03/26 10:02:29;;;;;;;9.60;2.93;;;;;;;8.33;60.01;99139.56;19935153;29;20744;-87
2023/03/26 10:12:56;;;;;;;9.00;2.57;;;;;;;8.54;59.21;99128.09;19960421;29;20562;-85
2023/03/26 10:23:24;;;;;;;7.00;2.40;;;;;;;8.29;61.04;99127.38;19952585;29;20236;-88
2023/03/26 10:33:38;;;;;;;8.80;1.70;;;;;;;7.93;61.80;99117.88;19925312;29;20700;-88
2023/03/26 10:44:20;;;;;;;7.77;1.70;;;;;;;8.00;61.49;99120.94;19927894;29;20220;-85
2023/03/26 10:54:48;;;;;;;5.80;1.30;;;;;;;7.39;60.29;99112.50;19928514;29;20280;-82
2023/03/26 11:05:09;;;;;;;2.87;0.50;;;;;;;7.60;58.04;99105.97;19940605;29;20339;-82
2023/03/26 11:15:26;;;;;;;2.20;0.60;;;;;;;7.43;60.44;99105.03;19923748;29;20574;-83
2023/03/26 11:26:06;;;;;;;0.63;0.27;;;;;;;6.88;62.06;99104.72;19927134;29;20263;-83
2023/03/26 11:36:13;;;;;;;1.50;0.80;;;;;;;6.35;63.83;99107.22;19925357;29;20287;-84
2023/03/26 11:46:17;;;;;;;0.90;0.10;;;;;;;5.62;64.29;99103.19;19919294;29;20261;-83
2023/03/26 11:56:30;;;;;;;0.90;0.30;;;;;;;6.95;61.51;99091.78;19944445;29;20259;-82
2023/03/26 12:06:33;;;;;;;0.27;0.10;;;;;;;6.37;61.22;99093.69;19938186;29;20520;-84
2023/03/26 12:16:35;;;;;;;0.83;0.20;;;;;;;6.67;61.70;99083.19;19930022;29;20289;-84
2023/03/26 12:26:45;;;;;;;0.47;0.20;;;;;;;7.22;59.12;99087.50;19945184;29;20586;-83
2023/03/26 12:36:50;;;;;;;0.30;0.20;;;;;;;6.67;61.16;99085.19;19933465;29;20227;-84
2023/03/26 12:47:06;;;;;;;1.07;0.10;;;;;;;7.30;57.55;99074.50;19934228;29;20277;-83
2023/03/26 12:57:37;;;;;;;1.70;0.20;;;;;;;7.49;60.27;99071.09;19937391;29;20247;-84
2023/03/26 13:07:50;;;;;;;1.33;0.30;;;;;;;8.60;56.38;99064.81;19948022;29;20236;-83
2023/03/26 13:17:58;;;;;;;2.75;0.40;;;;;;;8.55;55.57;99065.03;19944269;29;20236;-82
2023/03/26 13:28:18;;;;;;;1.93;0.87;;;;;;;8.55;57.12;99060.25;19978670;29;20211;-83
2023/03/26 13:38:42;;;;;;;1.20;0.30;;;;;;;8.41;55.21;99057.03;19935235;29;20254;-82
2023/03/26 13:49:11;;;;;;;0.37;0.10;;;;;;;7.81;55.36;99050.47;19945436;29;20681;-82
2023/03/26 13:59:19;;;;;;;0.53;0.20;;;;;;;8.13;55.06;99062.69;19942799;29;20266;-82
2023/03/26 14:09:30;;;;;;;1.55;0.30;;;;;;;8.44;57.61;99064.75;19948794;29;20223;-83
2023/03/26 14:19:36;;;;;;;0.40;0.20;;;;;;;8.10;58.06;99058.59;19928836;29;20303;-81
2023/03/26 14:29:47;;;;;;;0.47;0.10;;;;;;;8.14;56.59;99076.34;19939739;29;20204;-84
2023/03/26 14:40:47;;;;;;;2.03;0.20;;;;;;;7.92;58.14;99090.13;19959812;29;20311;-85
2023/03/26 14:50:54;;;;;;;0.30;0.23;;;;;;;8.50;56.26;99094.28;19941186;29;20502;-83
2023/03/26 15:01:25;;;;;;;0.40;0.23;;;;;;;8.10;56.06;99109.19;19951711;29;20252;-83
2023/03/26 15:11:50;;;;;;;0.70;0.20;;;;;;;7.16;59.87;99119.75;19932905;29;20844;-83
2023/03/26 15:22:31;;;;;;;1.38;0.30;;;;;;;7.23;59.52;99139.63;19936763;29;20729;-83
2023/03/26 15:32:55;;;;;;;1.50;0.40;;;;;;;7.26;60.62;99154.94;19795389;29;20238;-82
2023/03/26 15:43:10;;;;;;;0.73;0.30;;;;;;;7.65;60.14;99164.72;19934614;29;20296;-85
2023/03/26 15:53:23;;;;;;;1.90;1.17;;;;;;;7.09;61.32;99181.25;19952689;29;20299;-85
2023/03/26 16:03:48;;;;;;;2.73;1.13;;;;;;;6.90;61.83;99194.97;19949635;29;20259;-85
2023/03/26 16:14:16;;;;;;;4.20;1.47;;;;;;;6.90;61.81;99217.44;19942377;29;20598;-85
2023/03/26 16:24:37;;;;;;;2.03;0.93;;;;;;;6.44;62.16;99230.50;19962939;29;20227;-85
2023/03/26 16:34:56;;;;;;;3.77;2.37;;;;;;;6.37;63.78;99244.22;19968139;29;20231;-83
2023/03/26 16:45:12;;;;;;;7.47;4.27;;;;;;;6.35;64.12;99260.56;19923543;29;20339;-84
2023/03/26 16:55:20;;;;;;;16.37;6.20;;;;;;;5.69;64.29;99296.66;19932564;29;20542;-85
2023/03/26 17:05:33;;;;;;;13.60;5.47;;;;;;;6.35;61.63;99313.81;19930924;29;20248;-85
2023/03/26 17:15:52;;;;;;;14.07;5.40;;;;;;;6.88;60.68;99340.38;19960506;29;20249;-86
2023/03/26 17:26:16;;;;;;;12.03;4.30;;;;;;;6.66;60.01;99349.97;19945550;29;20558;-85
2023/03/26 17:36:35;;;;;;;15.20;4.27;;;;;;;6.42;59.52;99375.81;19953279;29;20319;-85
2023/03/26 17:46:41;;;;;;;10.57;3.90;;;;;;;6.29;57.38;99399.28;19938595;29;20247;-84
2023/03/26 17:56:45;;;;;;;6.07;2.23;;;;;;;6.30;57.38;99415.75;19919832;29;20629;-85
2023/03/26 18:06:58;;;;;;;11.27;2.70;;;;;;;6.54;55.41;99437.59;19944327;29;20256;-86
2023/03/26 18:17:00;;;;;;;6.07;2.27;;;;;;;6.17;55.50;99463.63;19929877;29;20284;-85
2023/03/26 18:27:10;;;;;;;11.10;2.87;;;;;;;5.50;56.69;99489.41;19941664;29;20208;-84
2023/03/26 18:37:23;;;;;;;13.27;2.73;;;;;;;5.55;54.26;99515.25;19938193;29;20633;-84
2023/03/26 18:47:26;;;;;;;13.90;3.10;;;;;;;5.94;54.33;99528.25;19931493;29;20280;-84
2023/03/26 18:57:28;;;;;;;13.40;3.50;;;;;;;5.55;51.86;99548.84;19931242;29;20649;-83
2023/03/26 19:07:31;;;;;;;12.40;2.40;;;;;;;5.74;53.34;99562.53;19931969;29;20654;-84
2023/03/26 19:17:38;;;;;;;12.33;1.77;;;;;;;5.34;50.26;99580.56;19932378;29;20239;-83
2023/03/26 19:27:41;;;;;;;8.10;2.53;;;;;;;5.44;49.88;99602.66;19925079;29;20204;-83
2023/03/26 19:37:52;;;;;;;7.13;1.53;;;;;;;5.06;49.34;99624.75;19934759;29;20632;-86
2023/03/26 19:47:56;;;;;;;12.67;1.80;;;;;;;4.80;49.14;99644.19;19927807;29;20208;-83
2023/03/26 19:58:29;;;;;;;7.90;1.73;;;;;;;4.83;48.11;99655.56;19923875;29;20227;-83
2023/03/26 20:08:31;;;;;;;6.30;1.43;;;;;;;5.11;48.86;99678.59;19936367;29;20212;-86
2023/03/26 20:18:34;;;;;;;13.53;1.40;;;;;;;4.61;49.20;99708.72;19930111;29;20273;-83
2023/03/26 20:28:36;;;;;;;12.33;2.00;;;;;;;4.19;47.73;99735.97;19934889;29;21075;-83
2023/03/26 20:38:49;;;;;;;7.77;1.17;;;;;;;4.07;46.62;99759.97;19933977;29;20693;-84
2023/03/26 20:48:52;;;;;;;5.10;1.20;;;;;;;3.97;49.37;99782.53;19962710;29;20661;-84
2023/03/26 20:58:57;;;;;;;4.87;1.07;;;;;;;3.82;46.83;99806.84;19943694;29;20231;-85
2023/03/26 21:09:03;;;;;;;7.57;1.00;;;;;;;3.41;46.27;99819.94;19944864;29;20325;-83
2023/03/26 21:19:05;;;;;;;7.57;1.73;;;;;;;3.81;44.51;99841.50;19942035;29;20239;-83
2023/03/26 21:29:08;;;;;;;4.40;0.93;;;;;;;3.76;46.74;99869.50;19960698;29;20188;-84
2023/03/26 21:39:10;;;;;;;6.83;1.10;;;;;;;3.78;45.99;99881.19;19951962;29;20249;-84
2023/03/26 21:49:14;;;;;;;4.90;1.00;;;;;;;3.85;49.00;99898.34;19941802;29;20296;-83
2023/03/26 21:59:25;;;;;;;7.07;1.20;;;;;;;3.96;46.24;99921.34;19959678;29;20284;-83
2023/03/26 22:09:28;;;;;;;7.10;1.30;;;;;;;3.31;46.19;99954.03;19949148;29;20204;-83
2023/03/26 22:19:37;;;;;;;6.03;1.27;;;;;;;3.76;45.90;99964.41;19951100;29;20714;-83
2023/03/26 22:29:39;;;;;;;10.17;1.13;;;;;;;3.68;48.55;99976.28;19967966;29;20659;-82
2023/03/26 22:39:42;;;;;;;10.13;1.07;;;;;;;3.15;46.10;100006.41;19951362;29;20236;-83
2023/03/26 22:49:44;;;;;;;6.23;1.20;;;;;;;3.28;47.55;100016.84;19964856;29;20208;-83
2023/03/26 22:59:46;;;;;;;5.80;0.87;;;;;;;3.21;48.26;100043.41;19959741;29;20235;-84
2023/03/26 23:09:48;;;;;;;5.97;1.00;;;;;;;3.21;49.83;100052.63;19954119;29;20269;-84
2023/03/26 23:19:50;;;;;;;9.33;1.70;;;;;;;3.51;49.68;100068.09;19951310;29;20235;-83
2023/03/26 23:29:54;;;;;;;5.37;0.70;;;;;;;3.18;46.05;100095.09;19952850;29;20225;-84
2023/03/26 23:39:57;;;;;;;6.33;0.93;;;;;;;3.40;45.61;100108.47;19950777;29;20216;-83
2023/03/26 23:50:03;;;;;;;11.17;1.87;;;;;;;3.16;47.84;100130.81;19949917;29;20469;-82
